Time;durP1;ratioP1;P1;durP2;ratioP2;P2;SDS_P1;SDS_P2;PMS_P1;PMS_P2;Temp;Humidity;BMP_temperature;BMP_pressure;BME280_temperature;BME280_humidity;BME280_pressure;Samples;Min_cycle;Max_cycle;Signal;HPM_P1;HPM_P2
2022/08/17 00:00:22;;;;;;;1.60;1.60;;;25.00;99.90;;;25.34;67.76;100900.94;4826344;29;20519;-68
2022/08/17 00:03:14;;;;;;;2.22;2.13;;;25.00;99.90;;;25.34;67.67;100905.50;4826665;29;20042;-67
2022/08/17 00:05:52;;;;;;;3.50;3.35;;;25.00;99.90;;;25.27;68.05;100896.88;4825281;29;20054;-67
2022/08/17 00:08:26;;;;;;;2.33;2.22;;;24.90;99.90;;;25.26;68.41;100895.13;4826347;29;20054;-67
2022/08/17 00:10:55;;;;;;;2.47;2.38;;;24.90;99.90;;;25.14;68.53;100873.41;4826868;29;20046;-67
2022/08/17 00:13:31;;;;;;;2.10;2.00;;;24.90;99.90;;;25.25;68.42;100888.00;4826277;29;20069;-67
2022/08/17 00:16:06;;;;;;;1.80;1.80;;;24.90;99.90;;;25.23;68.44;100891.75;4826256;29;20054;-67
2022/08/17 00:18:38;;;;;;;2.08;1.98;;;24.90;99.90;;;25.29;68.57;100889.53;4826143;29;20493;-68
2022/08/17 00:21:28;;;;;;;1.85;1.80;;;24.90;99.90;;;25.11;68.48;100857.34;4826146;29;20481;-68
2022/08/17 00:24:18;;;;;;;2.33;2.22;;;24.90;99.90;;;25.24;68.64;100880.81;4826437;29;20042;-67
2022/08/17 00:26:46;;;;;;;1.80;1.80;;;24.90;99.90;;;25.23;68.93;100881.81;4826378;29;20087;-67
2022/08/17 00:29:15;;;;;;;4.35;4.13;;;24.90;99.90;;;25.19;69.08;100876.66;4826279;29;20054;-67
2022/08/17 00:31:49;;;;;;;1.70;1.70;;;24.90;99.90;;;25.08;69.17;100853.00;4826036;29;20061;-67
2022/08/17 00:34:24;;;;;;;1.95;1.88;;;24.90;99.90;;;25.30;68.72;100880.41;4824837;29;20467;-67
2022/08/17 00:36:55;;;;;;;2.03;1.92;;;24.90;99.90;;;25.24;68.83;100877.25;4825839;29;20062;-68
2022/08/17 00:39:23;;;;;;;1.77;1.77;;;24.90;99.90;;;25.23;68.94;100873.69;4825827;29;20461;-67
2022/08/17 00:41:51;;;;;;;6.10;5.35;;;24.90;99.90;;;25.13;69.11;100861.69;4825763;29;20061;-68
2022/08/17 00:44:19;;;;;;;2.22;2.13;;;24.90;99.90;;;24.79;69.51;100808.88;4826021;29;20107;-67
2022/08/17 00:47:00;;;;;;;2.40;2.30;;;24.80;99.90;;;25.07;69.85;100859.38;4825720;29;20042;-68
2022/08/17 00:49:30;;;;;;;2.80;2.60;;;24.70;99.90;;;25.11;69.79;100860.03;4825974;29;20054;-67
2022/08/17 00:52:07;;;;;;;2.65;2.55;;;24.80;99.90;;;24.94;70.11;100867.44;4825855;29;20497;-67
2022/08/17 00:54:43;;;;;;;3.38;3.17;;;24.60;99.90;;;24.86;70.63;100858.94;4826215;29;20046;-67
2022/08/17 00:57:22;;;;;;;3.63;3.42;;;24.50;99.90;;;24.62;71.56;100848.75;4825700;29;20080;-67
2022/08/17 00:59:54;;;;;;;20.50;3.72;;;24.40;99.90;;;24.49;73.13;100847.75;4825411;29;20054;-67
2022/08/17 01:02:37;;;;;;;6.13;3.88;;;24.30;99.90;;;24.47;73.60;100831.63;4824230;29;20074;-67
2022/08/17 01:05:18;;;;;;;3.95;3.65;;;24.10;99.90;;;24.22;75.31;100844.91;4825769;29;20081;-67
2022/08/17 01:07:50;;;;;;;2.22;2.13;;;24.00;99.90;;;23.94;76.20;100834.88;4825605;29;20062;-67
2022/08/17 01:10:23;;;;;;;3.10;3.00;;;23.80;99.90;;;23.77;77.04;100839.56;4824598;29;20065;-67
2022/08/17 01:13:16;;;;;;;2.95;2.85;;;23.60;99.90;;;23.78;78.57;100914.25;4825558;29;20125;-67
2022/08/17 01:15:52;;;;;;;5.07;4.63;;;23.40;99.90;;;23.91;78.21;100935.06;4825202;29;20046;-67
2022/08/17 01:18:26;;;;;;;4.70;4.30;;;23.50;99.90;;;23.94;77.24;100951.06;4825058;29;20497;-67
2022/08/17 01:20:59;;;;;;;2.75;2.65;;;23.50;99.90;;;23.98;76.03;100958.03;4825032;29;20500;-67
2022/08/17 01:23:32;;;;;;;4.53;4.25;;;23.60;99.90;;;23.77;74.88;100972.81;4825061;29;20557;-67
2022/08/17 01:26:02;;;;;;;5.97;5.45;;;23.40;99.90;;;23.78;74.16;100954.78;4824141;29;20074;-67
2022/08/17 01:28:33;;;;;;;7.15;6.53;;;23.50;99.90;;;23.06;74.06;100871.53;4825311;29;20050;-67
2022/08/17 01:31:24;;;;;;;3.20;3.00;;;23.40;99.90;;;23.66;74.86;100991.47;4825008;29;20417;-67
2022/08/17 01:33:56;;;;;;;4.05;3.78;;;23.30;99.90;;;23.56;74.96;101003.72;4824854;29;20099;-67
2022/08/17 01:36:24;;;;;;;2.88;2.78;;;23.20;99.90;;;23.27;76.45;100994.50;4824817;29;20043;-67
2022/08/17 01:38:54;;;;;;;3.03;2.90;;;22.90;99.90;;;23.12;77.31;100987.25;4824852;29;20137;-67
2022/08/17 01:41:24;;;;;;;5.25;4.85;;;22.70;99.90;;;22.88;78.65;100968.81;4825187;29;20047;-67
2022/08/17 01:43:59;;;;;;;4.53;4.20;;;22.50;99.90;;;22.61;79.85;100957.63;4825098;29;20047;-67
2022/08/17 01:46:35;;;;;;;3.47;3.28;;;22.20;99.90;;;22.44;81.20;100961.19;4825041;29;20074;-67
2022/08/17 01:49:06;;;;;;;3.25;2.92;;;22.00;99.90;;;22.25;82.95;100960.41;4824758;29;20050;-67
2022/08/17 01:51:39;;;;;;;2.47;2.38;;;21.90;99.90;;;22.35;83.59;100971.59;4824676;29;20470;-67
2022/08/17 01:54:13;;;;;;;10.80;5.43;;;21.90;99.90;;;22.37;84.01;100992.13;4823691;29;20054;-67
2022/08/17 01:56:48;;;;;;;2.50;2.40;;;22.00;99.90;;;22.52;84.33;100971.59;4825030;29;20549;-68
2022/08/17 01:59:19;;;;;;;2.50;2.40;;;22.10;99.90;;;22.58;84.12;100970.41;4824805;29;20088;-68
2022/08/17 02:01:49;;;;;;;2.35;2.25;;;22.20;99.90;;;22.63;84.37;100971.06;4824937;29;20083;-68
2022/08/17 02:04:17;;;;;;;3.53;3.33;;;22.30;99.90;;;22.59;84.12;100969.47;4824786;29;20401;-67
2022/08/17 02:06:47;;;;;;;4.97;4.53;;;22.30;99.90;;;22.55;84.21;100949.00;4824711;29;20492;-67
2022/08/17 02:09:24;;;;;;;2.65;2.55;;;22.30;99.90;;;22.51;83.70;100915.03;4824552;29;20048;-67
2022/08/17 02:11:58;;;;;;;2.70;2.60;;;22.30;99.90;;;22.56;84.01;100926.44;4824673;29;20050;-67
2022/08/17 02:14:49;;;;;;;4.10;3.80;;;22.30;99.90;;;22.57;84.40;100937.19;4824399;29;20050;-67
2022/08/17 02:17:17;;;;;;;2.83;2.72;;;22.30;99.90;;;22.62;84.10;100939.66;4824609;29;20050;-67
2022/08/17 02:19:45;;;;;;;2.40;2.30;;;22.30;99.90;;;22.61;83.70;100932.53;4824614;29;20054;-67
2022/08/17 02:22:14;;;;;;;2.55;2.45;;;22.30;99.90;;;22.58;83.86;100927.28;4824142;29;20129;-68
2022/08/17 02:24:45;;;;;;;2.78;2.67;;;22.30;99.90;;;22.65;83.77;100917.94;4824346;29;20054;-67
2022/08/17 02:27:29;;;;;;;2.97;2.85;;;22.40;99.90;;;22.64;83.16;100902.69;4824615;29;20062;-67
2022/08/17 02:29:57;;;;;;;2.35;2.25;;;22.30;99.90;;;22.69;83.15;100898.78;4824552;29;20066;-68
2022/08/17 02:32:26;;;;;;;3.55;3.35;;;22.40;99.90;;;22.68;82.91;100897.06;4824300;29;20133;-67
2022/08/17 02:34:56;;;;;;;3.38;3.17;;;22.40;99.90;;;22.69;83.21;100898.78;4824149;29;20042;-67
2022/08/17 02:37:25;;;;;;;2.70;2.60;;;22.40;99.90;;;22.75;82.88;100894.88;4823934;29;20054;-67
2022/08/17 02:39:57;;;;;;;3.22;3.10;;;22.40;99.90;;;22.85;82.73;100894.31;4824165;29;20540;-67
2022/08/17 02:42:32;;;;;;;2.67;2.53;;;22.50;99.90;;;22.67;82.70;100905.19;4824411;29;20201;-67
2022/08/17 02:45:09;;;;;;;2.65;2.55;;;22.30;99.90;;;22.62;83.39;100910.84;4824305;29;20454;-67
2022/08/17 02:47:39;;;;;;;2.67;2.58;;;22.30;99.90;;;22.59;83.55;100915.56;4824211;29;20079;-67
2022/08/17 02:50:11;;;;;;;3.88;3.67;;;22.20;99.90;;;22.63;83.92;100936.84;4824085;29;20497;-67
2022/08/17 02:52:42;;;;;;;3.88;3.67;;;22.30;99.90;;;22.64;83.79;100937.75;4824041;29;20386;-67
2022/08/17 02:55:20;;;;;;;2.30;2.20;;;22.30;99.90;;;22.50;84.01;100921.38;4824057;29;20408;-67
2022/08/17 02:57:50;;;;;;;2.60;2.50;;;22.30;99.90;;;22.59;84.33;100934.44;4823903;29;20042;-68
2022/08/17 03:00:23;;;;;;;3.63;3.43;;;22.30;99.90;;;22.66;84.07;100930.44;4824206;29;20050;-68
2022/08/17 03:02:53;;;;;;;2.30;2.20;;;22.30;99.90;;;22.75;83.90;100927.25;4824147;29;20210;-67
2022/08/17 03:05:24;;;;;;;3.55;3.35;;;22.40;99.90;;;22.80;83.93;100931.44;4824089;29;20049;-67
2022/08/17 03:07:53;;;;;;;2.85;2.75;;;22.50;99.90;;;22.85;83.59;100933.91;4824195;29;20097;-67
2022/08/17 03:10:23;;;;;;;2.30;2.20;;;22.50;99.90;;;22.77;83.41;100906.44;4823779;29;20046;-67
2022/08/17 03:12:53;;;;;;;2.45;2.35;;;22.60;99.90;;;22.95;83.14;100924.34;4824098;29;20519;-68
2022/08/17 03:15:25;;;;;;;2.60;2.50;;;22.60;99.90;;;22.81;83.09;100895.44;4822777;29;20050;-67
2022/08/17 03:17:55;;;;;;;2.45;2.35;;;22.60;99.90;;;22.78;82.54;100875.84;4823750;29;20106;-67
2022/08/17 03:20:26;;;;;;;2.58;2.38;;;22.70;99.90;;;23.02;82.43;100914.97;4823760;29;20133;-67
2022/08/17 03:22:57;;;;;;;2.30;2.20;;;22.70;99.90;;;23.03;82.12;100908.63;4823975;29;20050;-68
2022/08/17 03:25:36;;;;;;;2.80;2.63;;;22.70;99.90;;;23.10;81.68;100910.88;4823704;29;20053;-67
2022/08/17 03:28:10;;;;;;;5.75;5.40;;;22.80;99.90;;;23.05;81.77;100912.09;4823580;29;20050;-68
2022/08/17 03:30:39;;;;;;;2.28;2.17;;;22.80;99.90;;;23.06;81.73;100913.84;4823963;29;20129;-67
2022/08/17 03:33:09;;;;;;;2.47;2.38;;;22.70;99.90;;;23.06;81.82;100900.34;4824944;29;20153;-67
2022/08/17 03:35:42;;;;;;;2.70;2.60;;;22.70;99.90;;;23.06;81.78;100913.84;4827050;29;20073;-68
2022/08/17 03:38:13;;;;;;;2.42;2.33;;;22.70;99.90;;;23.07;81.46;100899.41;4826612;29;20166;-67
2022/08/17 03:40:48;;;;;;;2.25;2.15;;;22.80;99.90;;;23.08;81.73;100902.00;4826946;29;20429;-67
2022/08/17 03:43:28;;;;;;;2.10;2.00;;;22.80;99.90;;;23.14;81.23;100906.19;4827004;29;20476;-67
2022/08/17 03:57:17;;;;;;;2.38;2.28;;;22.80;99.90;;;23.02;80.14;100896.94;4826700;29;20051;-68
2022/08/17 03:59:46;;;;;;;;;;;22.80;99.90;;;23.01;80.00;100897.03;4826865;29;20439;-67
2022/08/17 04:02:22;;;;;;;2.53;2.42;;;22.70;99.90;;;22.90;79.59;100880.56;4826387;29;19931;-67
2022/08/17 04:04:51;;;;;;;3.08;2.97;;;22.70;99.90;;;22.96;79.72;100899.09;4826414;29;20099;-67
2022/08/17 04:07:21;;;;;;;2.28;2.17;;;22.70;99.90;;;22.96;79.93;100896.41;4826371;29;20046;-64
2022/08/17 04:09:51;;;;;;;2.38;2.28;;;22.70;99.90;;;22.87;80.19;100884.31;4826247;29;20107;-64
2022/08/17 04:12:23;;;;;;;2.40;2.30;;;22.60;99.90;;;22.97;80.49;100892.75;4826522;29;20465;-65
2022/08/17 04:14:52;;;;;;;2.33;2.22;;;22.60;99.90;;;22.95;80.73;100898.25;4826318;29;20058;-65
2022/08/17 04:17:25;;;;;;;2.10;2.00;;;22.70;99.90;;;22.96;81.01;100896.41;4826308;29;20069;-65
2022/08/17 04:19:54;;;;;;;2.20;2.10;;;22.60;99.90;;;22.91;81.14;100917.38;4826215;29;20111;-66
2022/08/17 04:22:24;;;;;;;2.10;2.00;;;22.60;99.90;;;22.95;81.05;100889.28;4826226;29;20554;-64
2022/08/17 04:25:08;;;;;;;2.38;2.28;;;22.60;99.90;;;23.06;80.46;100892.25;4826242;29;20105;-65
2022/08/17 04:27:37;;;;;;;2.33;2.22;;;22.70;99.90;;;23.06;80.22;100893.13;4826331;29;20445;-65
2022/08/17 04:30:07;;;;;;;2.00;1.90;;;22.70;99.90;;;23.08;80.16;100903.81;4826228;29;20046;-66
2022/08/17 04:32:52;;;;;;;2.45;2.35;;;22.70;99.90;;;23.02;79.78;100885.28;4825897;29;20079;-66
2022/08/17 04:35:37;;;;;;;2.28;2.17;;;22.80;99.90;;;23.10;79.76;100897.41;4825884;29;20409;-66
2022/08/17 04:38:07;;;;;;;2.25;2.15;;;22.70;99.90;;;23.06;80.20;100905.72;4826190;29;20055;-66
2022/08/17 04:43:26;;;;;;;2.20;2.10;;;22.70;99.90;;;23.08;81.20;100885.81;4825817;29;20119;-66
2022/08/17 04:45:57;;;;;;;2.50;2.40;;;22.70;99.90;;;23.11;80.94;100882.94;4825738;29;20505;-66
2022/08/17 04:48:32;;;;;;;2.35;2.25;;;22.80;99.90;;;22.54;80.80;100764.75;4826083;29;20077;-66
2022/08/17 04:51:09;;;;;;;2.13;2.03;;;22.80;99.90;;;23.21;80.68;100869.78;4825712;29;20053;-65
2022/08/17 04:53:39;;;;;;;2.10;2.00;;;22.80;99.90;;;23.14;81.29;100874.69;4825897;29;20450;-66
2022/08/17 04:56:09;;;;;;;2.05;1.95;;;22.80;99.90;;;23.15;81.14;100872.84;4825629;29;20122;-66
2022/08/17 04:58:48;;;;;;;2.20;2.10;;;22.80;99.90;;;23.19;81.40;100869.00;4825519;29;20050;-66
2022/08/17 05:01:19;;;;;;;2.40;2.30;;;22.90;99.90;;;23.17;81.46;100871.78;4825859;29;20124;-66
2022/08/17 05:03:52;;;;;;;2.45;2.35;;;22.80;99.90;;;23.16;81.79;100866.50;4825808;29;20388;-66
2022/08/17 05:06:21;;;;;;;2.25;2.15;;;22.80;99.90;;;23.16;81.90;100870.06;4825628;29;20066;-66
2022/08/17 05:08:49;;;;;;;2.20;2.10;;;22.80;99.90;;;23.21;81.98;100873.38;4825709;29;20129;-66
2022/08/17 05:11:17;;;;;;;2.10;2.00;;;22.80;99.90;;;23.25;81.81;100879.47;4825346;29;20137;-66
2022/08/17 05:13:48;;;;;;;3.03;2.92;;;22.90;99.90;;;23.28;82.04;100879.31;4825542;29;20050;-66
2022/08/17 05:16:18;;;;;;;1.95;1.85;;;22.90;99.90;;;23.18;81.92;100868.16;4824322;29;20062;-65
2022/08/17 05:18:47;;;;;;;2.63;2.53;;;22.90;99.90;;;23.33;81.63;100879.06;4825466;29;20051;-66
2022/08/17 05:21:16;;;;;;;2.60;2.50;;;23.00;99.90;;;23.30;81.69;100882.78;4825472;29;20096;-66
2022/08/17 05:23:45;;;;;;;2.28;2.17;;;22.90;99.90;;;23.32;81.61;100894.41;4825477;29;20401;-66
2022/08/17 05:26:23;;;;;;;2.00;1.90;;;23.00;99.90;;;23.32;81.92;100893.53;4825252;29;20047;-66
2022/08/17 05:28:57;;;;;;;2.10;2.00;;;23.00;99.90;;;23.38;81.82;100895.88;4825401;29;20090;-66
2022/08/17 05:31:30;;;;;;;2.40;2.30;;;23.10;99.90;;;23.36;81.74;100895.09;4825087;29;20046;-66
2022/08/17 05:33:59;;;;;;;1.98;1.88;;;23.10;99.90;;;23.37;81.71;100895.00;4824978;29;20042;-65
2022/08/17 05:36:27;;;;;;;2.13;2.03;;;23.10;99.90;;;23.46;81.33;100902.56;4824775;29;20074;-66
2022/08/17 05:39:14;;;;;;;2.33;2.22;;;23.10;99.90;;;23.42;81.56;100909.13;4824869;29;20463;-65
2022/08/17 05:41:47;;;;;;;2.35;2.25;;;23.10;99.90;;;23.13;83.05;100915.25;4825228;29;20050;-66
2022/08/17 05:44:17;;;;;;;2.50;2.40;;;22.80;99.90;;;23.19;82.98;100918.47;4825215;29;20440;-66
2022/08/17 05:46:50;;;;;;;2.30;2.20;;;22.80;99.90;;;23.13;83.23;100915.25;4824782;29;20141;-65
2022/08/17 05:49:27;;;;;;;2.00;1.90;;;22.80;99.90;;;23.29;83.27;100927.81;4825039;29;20112;-66
2022/08/17 05:52:19;;;;;;;2.03;1.92;;;22.90;99.90;;;23.32;83.30;100928.63;4824996;29;20077;-65
2022/08/17 05:55:03;;;;;;;1.85;1.80;;;23.00;99.90;;;23.36;83.26;100933.78;4824572;29;20111;-66
2022/08/17 05:57:59;;;;;;;2.08;1.98;;;23.00;99.90;;;23.41;83.02;100938.91;4824692;29;20087;-66
2022/08/17 06:00:38;;;;;;;4.30;4.05;;;23.10;99.90;;;23.36;82.89;100947.28;4824884;29;20570;-66
2022/08/17 06:03:40;;;;;;;2.35;2.25;;;23.10;99.90;;;23.48;82.44;100948.41;4824660;29;20106;-66
2022/08/17 06:06:31;;;;;;;2.05;1.95;;;23.10;99.90;;;23.49;81.91;100951.03;4821178;29;20115;-66
2022/08/17 06:09:14;;;;;;;2.33;2.22;;;23.20;99.90;;;23.52;81.93;100939.19;4824878;29;20121;-66
2022/08/17 06:11:53;;;;;;;2.47;2.38;;;23.20;99.90;;;23.63;81.44;100936.75;4824630;29;20079;-66
2022/08/17 06:14:50;;;;;;;2.33;2.22;;;23.30;99.90;;;23.56;81.58;100929.94;4824483;29;20057;-66
2022/08/17 06:17:23;;;;;;;2.78;2.67;;;23.20;99.90;;;23.54;81.36;100937.28;4824878;29;20126;-66
2022/08/17 06:19:58;;;;;;;2.70;2.60;;;23.20;99.90;;;23.61;81.26;100938.66;4823140;29;20145;-66
2022/08/17 06:22:38;;;;;;;8.07;5.72;;;23.20;99.90;;;23.45;81.75;100938.66;4824427;29;20103;-66
2022/08/17 06:25:14;;;;;;;2.35;2.25;;;23.20;99.90;;;23.30;82.83;100952.97;4824349;29;20141;-66
2022/08/17 06:27:47;;;;;;;2.63;2.53;;;23.00;99.90;;;23.48;82.80;100951.13;4824624;29;20046;-66
2022/08/17 06:30:24;;;;;;;2.22;2.13;;;23.10;99.90;;;23.49;82.81;100952.84;4824303;29;20558;-66
2022/08/17 06:32:58;;;;;;;2.30;2.20;;;23.20;99.90;;;23.46;82.70;100945.78;4824282;29;20115;-66
2022/08/17 06:35:38;;;;;;;2.92;2.83;;;23.20;99.90;;;23.50;82.64;100954.59;4824232;29;20054;-66
2022/08/17 06:38:14;;;;;;;2.57;2.47;;;23.20;99.90;;;23.49;82.13;100956.44;4824011;29;20584;-66
2022/08/17 06:41:15;;;;;;;3.63;3.33;;;23.20;99.90;;;23.54;81.87;100957.03;4824294;29;20307;-66
2022/08/17 06:43:59;;;;;;;2.25;2.15;;;23.30;99.90;;;23.58;81.49;100955.03;4824617;29;20046;-66
2022/08/17 06:46:35;;;;;;;2.55;2.45;;;23.30;99.90;;;23.56;81.37;100956.94;4824092;29;20042;-66
2022/08/17 06:49:20;;;;;;;2.30;2.20;;;23.30;99.90;;;23.57;81.18;100948.78;4824610;29;20072;-66
2022/08/17 06:51:56;;;;;;;2.30;2.20;;;23.30;99.90;;;23.57;80.50;100956.88;4824249;29;20051;-66
2022/08/17 06:54:34;;;;;;;4.68;4.40;;;23.30;99.90;;;23.56;80.06;100960.50;4824010;29;20051;-66
2022/08/17 06:57:13;;;;;;;2.28;2.17;;;23.30;99.90;;;23.52;80.28;100960.78;4824148;29;20141;-67
2022/08/17 06:59:49;;;;;;;2.40;2.30;;;23.30;99.90;;;23.51;79.97;100957.22;4824341;29;20057;-66
2022/08/17 07:02:38;;;;;;;2.55;2.45;;;23.20;99.90;;;23.55;79.94;100958.78;4823996;29;20121;-76
2022/08/17 07:05:24;;;;;;;2.45;2.35;;;23.30;99.90;;;23.63;79.84;100970.03;4823881;29;20107;-68
2022/08/17 07:08:01;;;;;;;2.13;2.03;;;23.30;99.90;;;23.76;79.17;100981.00;4825211;29;20073;-68
2022/08/17 07:10:38;;;;;;;2.50;2.40;;;23.40;99.90;;;23.79;79.07;100991.66;4826388;29;20058;-68
2022/08/17 07:13:31;;;;;;;2.40;2.30;;;23.50;99.90;;;23.77;79.45;101002.53;4827556;29;20141;-69
2022/08/17 07:16:11;;;;;;;2.22;2.13;;;23.50;99.90;;;23.81;79.65;101001.41;4827819;29;20050;-68
2022/08/17 07:18:40;;;;;;;2.42;2.33;;;23.50;99.90;;;23.75;79.90;100996.34;4827507;29;20054;-68
2022/08/17 07:21:36;;;;;;;2.33;2.22;;;23.50;99.90;;;23.82;79.67;100992.34;4827052;29;20472;-68
2022/08/17 07:24:24;;;;;;;2.38;2.28;;;23.50;99.90;;;23.85;79.77;100988.56;4827112;29;20141;-69
2022/08/17 07:27:09;;;;;;;1.90;1.80;;;23.50;99.90;;;23.83;79.87;100990.50;4827126;29;20051;-68
2022/08/17 07:29:43;;;;;;;2.15;2.05;;;23.50;99.90;;;23.84;79.97;101003.94;4827097;29;20057;-66
2022/08/17 07:32:16;;;;;;;2.22;2.13;;;23.50;99.90;;;23.84;79.89;101001.25;4827144;29;20049;-70
2022/08/17 07:35:15;;;;;;;2.17;2.08;;;23.60;99.90;;;23.83;80.16;101002.19;4826928;29;20078;-68
2022/08/17 07:37:49;;;;;;;2.13;2.03;;;23.50;99.90;;;23.84;80.54;100997.66;4826929;29;20106;-71
2022/08/17 07:40:30;;;;;;;1.95;1.85;;;23.50;99.90;;;23.81;80.91;101001.41;4825769;29;20085;-70
2022/08/17 07:43:20;;;;;;;2.22;2.13;;;23.50;99.90;;;23.80;81.34;101002.38;4827071;29;20137;-67
2022/08/17 07:49:23;;;;;;;2.20;2.10;;;23.50;99.90;;;23.78;81.52;101000.69;4826894;29;20081;-76
2022/08/17 07:52:03;;;;;;;2.88;2.78;;;23.50;99.90;;;23.74;81.71;101000.00;4826605;29;20493;-68
2022/08/17 07:54:53;;;;;;;2.97;2.67;;;23.50;99.90;;;23.67;82.27;100998.63;4826523;29;20419;-69
2022/08/17 07:57:34;;;;;;;2.00;1.90;;;23.40;99.90;;;23.70;82.43;101006.53;4826822;29;20112;-66
2022/08/17 08:00:22;;;;;;;2.00;1.90;;;23.40;99.90;;;23.69;82.38;101006.63;4827003;29;20042;-67
2022/08/17 08:03:22;;;;;;;2.17;2.08;;;23.40;99.90;;;23.68;83.05;101012.97;4826513;29;20099;-66
2022/08/17 08:05:59;;;;;;;2.38;2.28;;;23.40;99.90;;;23.72;82.83;101012.72;4826394;29;20054;-70
2022/08/17 08:08:35;;;;;;;2.20;2.10;;;23.40;99.90;;;23.71;83.00;101010.97;4826382;29;20119;-69
2022/08/17 08:11:11;;;;;;;2.22;2.13;;;23.40;99.90;;;23.80;83.53;101013.19;4826342;29;20470;-70
2022/08/17 08:13:44;;;;;;;2.40;2.30;;;23.40;99.90;;;23.80;82.99;101006.88;4826292;29;20046;-69
2022/08/17 08:16:28;;;;;;;1.95;1.85;;;23.50;99.90;;;23.72;83.59;100990.25;4826543;29;20068;-69
2022/08/17 08:18:59;;;;;;;2.15;2.05;;;23.50;99.90;;;23.80;83.88;100998.78;4826018;29;20125;-67
2022/08/17 08:21:40;;;;;;;2.05;1.95;;;23.40;99.90;;;23.84;83.37;101009.34;4826095;29;20145;-68
2022/08/17 08:24:54;;;;;;;2.00;1.90;;;23.50;99.90;;;23.86;83.43;101004.72;4826137;29;20072;-69
2022/08/17 08:27:37;;;;;;;2.42;2.33;;;23.50;99.90;;;24.03;83.38;101007.34;4826415;29;20050;-69
2022/08/17 08:30:10;;;;;;;14.73;13.82;;;23.70;99.90;;;24.07;83.27;101010.75;4826024;29;20074;-69
2022/08/17 08:33:07;;;;;;;2.13;2.03;;;23.70;99.90;;;24.16;82.62;101015.63;4825989;29;20114;-69
2022/08/17 08:35:44;;;;;;;2.17;2.08;;;23.80;99.90;;;24.09;81.57;101025.06;4825986;29;20107;-70
2022/08/17 08:38:29;;;;;;;2.20;2.10;;;23.80;99.90;;;24.02;81.21;101059.66;4824871;29;20149;-70
2022/08/17 08:41:25;;;;;;;2.00;1.90;;;23.70;99.90;;;23.94;80.08;101088.91;4825826;29;20050;-71
2022/08/17 08:44:09;;;;;;;2.45;2.28;;;23.60;99.90;;;23.74;81.20;101097.28;4826135;29;20145;-70
2022/08/17 08:46:51;;;;;;;2.00;1.90;;;23.50;99.90;;;23.63;81.53;101096.13;4825831;29;20098;-70
2022/08/17 08:49:59;;;;;;;2.13;2.03;;;23.40;99.90;;;23.54;82.77;101110.97;4826274;29;20046;-70
2022/08/17 08:53:04;;;;;;;2.05;1.95;;;23.20;99.90;;;23.47;83.98;101092.50;4825751;29;20501;-69
2022/08/17 08:55:47;;;;;;;2.83;2.72;;;23.20;99.90;;;23.53;84.63;101087.66;4825910;29;20050;-70
2022/08/17 08:58:20;;;;;;;2.00;1.90;;;23.20;99.90;;;23.58;85.72;101103.56;4825590;29;20054;-71
2022/08/17 09:01:24;;;;;;;2.15;2.05;;;23.20;99.90;;;23.54;85.86;101097.47;4825500;29;20072;-69
2022/08/17 09:04:23;;;;;;;1.98;1.88;;;23.20;99.90;;;23.60;86.31;101104.38;4825519;29;20111;-70
2022/08/17 09:07:11;;;;;;;1.85;1.77;;;23.20;99.90;;;23.71;86.34;101091.16;4825514;29;20049;-71
2022/08/17 09:09:51;;;;;;;2.17;2.08;;;23.40;99.90;;;23.67;86.63;101079.66;4825495;29;20042;-75
2022/08/17 09:12:36;;;;;;;1.90;1.80;;;23.40;99.90;;;23.73;86.77;101086.56;4824722;29;20405;-70
2022/08/17 09:15:11;;;;;;;2.10;2.00;;;23.40;99.90;;;23.77;86.55;101082.72;4825640;29;20073;-70
2022/08/17 09:17:58;;;;;;;2.20;2.10;;;23.40;99.90;;;23.77;86.47;101080.03;4825301;29;20562;-70
2022/08/17 09:20:51;;;;;;;3.22;3.13;;;23.40;99.90;;;23.76;86.55;101087.25;4825443;29;20042;-70
2022/08/17 09:23:31;;;;;;;2.28;2.17;;;23.40;99.90;;;23.77;86.46;101096.25;4825284;29;20080;-70
2022/08/17 09:26:09;;;;;;;2.40;2.30;;;23.50;99.90;;;23.74;86.16;101094.56;4824324;29;20064;-70
2022/08/17 09:28:40;;;;;;;2.00;1.90;;;23.50;99.90;;;23.56;86.34;101091.97;4825242;29;20409;-70
2022/08/17 09:31:12;;;;;;;2.35;2.25;;;23.40;99.90;;;23.78;85.87;101109.66;4824284;29;20126;-70
2022/08/17 09:33:47;;;;;;;2.20;2.10;;;23.40;99.90;;;23.78;85.73;101104.25;4825152;29;20042;-70
2022/08/17 09:36:20;;;;;;;1.70;1.70;;;23.40;99.90;;;23.77;85.68;101096.25;4825018;29;20489;-70
2022/08/17 09:38:57;;;;;;;2.00;1.90;;;23.40;99.90;;;23.71;85.51;101092.03;4824927;29;20521;-69
2022/08/17 09:41:42;;;;;;;2.05;1.95;;;23.40;99.90;;;23.58;84.48;101066.66;4825196;29;20106;-73
2022/08/17 09:44:24;;;;;;;2.55;2.45;;;23.40;99.90;;;23.70;84.92;101086.72;4825271;29;20069;-73
2022/08/17 09:46:59;;;;;;;1.88;1.80;;;23.40;99.90;;;23.73;85.31;101094.66;4825011;29;20050;-71
2022/08/17 09:49:33;;;;;;;2.08;1.98;;;23.40;99.90;;;23.69;85.16;101093.09;4824950;29;20501;-68
2022/08/17 09:52:09;;;;;;;2.15;2.05;;;23.40;99.90;;;23.72;85.04;101095.59;4823867;29;20501;-69
2022/08/17 09:54:40;;;;;;;2.10;2.00;;;23.40;99.90;;;23.74;85.38;101091.88;4824715;29;20050;-69
2022/08/17 09:57:23;;;;;;;2.35;2.25;;;23.40;99.90;;;23.77;85.16;101097.09;4824813;29;20046;-69
2022/08/17 10:00:23;;;;;;;1.70;1.70;;;23.50;99.90;;;23.75;84.61;101081.94;4824770;29;20091;-69
2022/08/17 10:03:24;;;;;;;2.10;2.00;;;23.50;99.90;;;23.80;85.03;101091.53;4824622;29;20081;-66
2022/08/17 10:06:01;;;;;;;12.23;7.85;;;23.60;99.90;;;23.85;84.67;101086.72;4818914;29;20067;-69
2022/08/17 10:08:41;;;;;;;2.10;2.00;;;23.60;99.90;;;23.86;84.06;101090.31;4824922;29;20105;-75
2022/08/17 10:12:14;;;;;;;2.42;2.33;;;23.60;99.90;;;23.94;84.23;101090.78;4824933;29;20079;-65
2022/08/17 10:14:26;;;;;;;3.40;3.15;;;23.70;99.90;;;23.97;83.63;101087.88;4824447;29;20042;-65
2022/08/17 10:17:19;;;;;;;1.90;1.80;;;23.70;99.90;;;24.05;83.25;101091.06;4824493;29;20061;-67
2022/08/17 10:19:58;;;;;;;1.90;1.80;;;23.80;99.90;;;24.12;82.48;101087.03;4824476;29;20074;-67
2022/08/17 10:28:30;;;;;;;7.70;5.07;;;23.80;99.90;;;24.01;80.00;101093.03;4801716;29;20078;-66
2022/08/17 10:31:03;;;;;;;13.52;6.70;;;23.80;99.90;;;23.92;79.63;101079.16;4824704;29;20122;-65
2022/08/17 10:34:07;;;;;;;2.85;2.75;;;23.70;99.90;;;23.97;79.53;101086.06;4824256;29;20054;-66
2022/08/17 10:36:47;;;;;;;3.50;3.30;;;23.70;99.90;;;24.06;79.15;101084.72;4824304;29;20061;-67
2022/08/17 10:39:30;;;;;;;2.10;2.00;;;23.80;99.90;;;24.08;78.76;101091.75;4824343;29;20050;-67
2022/08/17 10:42:05;;;;;;;2.25;2.15;;;23.80;99.90;;;24.09;78.30;101093.50;4824249;29;20458;-65
2022/08/17 10:44:47;;;;;;;2.30;2.20;;;23.80;99.90;;;24.07;77.81;101100.84;4824192;29;20066;-67
2022/08/17 10:47:18;;;;;;;2.05;1.95;;;23.90;99.90;;;24.13;77.68;101091.50;4824515;29;20138;-66
2022/08/17 10:49:52;;;;;;;2.20;2.10;;;23.90;99.90;;;24.04;77.76;101079.38;4824397;29;20050;-71
2022/08/17 10:52:48;;;;;;;2.17;2.08;;;23.90;99.90;;;24.11;77.97;101097.00;4824643;29;20055;-69
2022/08/17 10:55:20;;;;;;;2.30;2.20;;;23.90;99.90;;;24.08;78.38;101096.28;4824302;29;20400;-64
2022/08/17 10:57:50;;;;;;;1.70;1.70;;;23.80;99.90;;;24.16;78.89;101099.44;4823027;29;20081;-66
2022/08/17 11:01:11;;;;;;;1.60;1.60;;;23.90;99.90;;;24.26;79.48;101103.34;4824210;29;20059;-66
2022/08/17 11:03:53;;;;;;;1.70;1.70;;;23.90;99.90;;;24.26;79.22;101094.38;4801537;29;20074;-68
2022/08/17 11:06:33;;;;;;;1.77;1.73;;;24.00;99.90;;;24.34;78.85;101092.97;4823981;29;20057;-68
2022/08/17 11:09:35;;;;;;;2.03;1.92;;;24.10;99.90;;;24.34;78.69;101098.38;4823902;29;20070;-68
2022/08/17 11:12:22;;;;;;;1.70;1.70;;;24.10;99.90;;;24.44;79.00;101098.72;4810993;29;20123;-67
2022/08/17 11:15:12;;;;;;;1.95;1.85;;;24.10;99.90;;;24.52;78.87;101099.16;4823866;29;20137;-68
2022/08/17 11:18:18;;;;;;;2.28;2.17;;;24.20;99.90;;;24.58;78.71;101098.81;4824356;29;20074;-67
2022/08/17 11:21:42;;;;;;;2.13;2.03;;;24.30;99.90;;;24.58;78.67;101091.56;4823822;29;20078;-67